CheckWX is a tool to help pilots better visualize weather data.  It is not intended as a substitute for an official pre-flight weather briefing.

13:05:11 UTC

KRST TAF
Rochester International Airport
Rochester, Minnesota, USA
KRST 181125Z 1812/1912 26013KT P6SM VCSH SCT035 BKN120 FM181300 29009KT P6SM BKN020 FM181900 31010KT P6SM SCT050 FM190000 30007KT P6SM SKC

Aug-18@
12:00 UTC

Aug-18 @ 12:00 UTC

Aug-18@
13:00 UTC

Aug-18 @ 13:00 UTC

KRST 181125Z 1812/1912 26013KT P6SM VCSH SCT035 BKN120

Expired

Wind
  • 260° at 13 KTS
Cloud Levels
  • Scattered at 3,500' AGL
  • Broken at 12,000' AGL

Aug-18@
13:00 UTC

Aug-18 @ 13:00 UTC

Aug-18@
19:00 UTC

Aug-18 @ 19:00 UTC

FM181300 29009KT P6SM BKN020

From

From Standard forecast or significant change

Wind
  • 290° at 9 KTS
Cloud Levels
  • Broken at 2,000' AGL

Aug-18@
19:00 UTC

Aug-18 @ 19:00 UTC

Aug-19@
00:00 UTC

Aug-19 @ 00:00 UTC

FM181900 31010KT P6SM SCT050

From

From Standard forecast or significant change

Wind
  • 310° at 10 KTS
Cloud Levels
  • Scattered at 5,000' AGL

Aug-19@
00:00 UTC

Aug-19 @ 00:00 UTC

Aug-19@
12:00 UTC

Aug-19 @ 12:00 UTC

FM190000 30007KT P6SM SKC

From

From Standard forecast or significant change

Wind
  • 300° at 7 KTS
Cloud Levels
  • Clear skies